sensor_id;sensor_type;location;lat;lon;timestamp;temperature;humidity
25188;DHT22;13141;50.414;8.050;2023-03-17T00:01:45;5.80;99.90
25188;DHT22;13141;50.414;8.050;2023-03-17T00:04:11;5.80;99.90
25188;DHT22;13141;50.414;8.050;2023-03-17T00:06:37;5.80;99.90
25188;DHT22;13141;50.414;8.050;2023-03-17T00:09:08;5.80;99.90
25188;DHT22;13141;50.414;8.050;2023-03-17T00:11:36;5.80;99.90
25188;DHT22;13141;50.414;8.050;2023-03-17T00:14:02;5.60;99.90
25188;DHT22;13141;50.414;8.050;2023-03-17T00:16:29;5.60;99.90
25188;DHT22;13141;50.414;8.050;2023-03-17T00:18:56;5.50;99.90
25188;DHT22;13141;50.414;8.050;2023-03-17T00:21:24;5.60;99.90
25188;DHT22;13141;50.414;8.050;2023-03-17T00:23:51;5.60;99.90
25188;DHT22;13141;50.414;8.050;2023-03-17T00:26:17;5.60;99.90
25188;DHT22;13141;50.414;8.050;2023-03-17T00:28:44;5.50;99.90
25188;DHT22;13141;50.414;8.050;2023-03-17T00:31:13;5.50;99.90
25188;DHT22;13141;50.414;8.050;2023-03-17T00:33:39;5.30;99.90
25188;DHT22;13141;50.414;8.050;2023-03-17T00:36:08;5.30;99.90
25188;DHT22;13141;50.414;8.050;2023-03-17T00:38:35;5.20;99.90
25188;DHT22;13141;50.414;8.050;2023-03-17T00:41:00;5.20;99.90
25188;DHT22;13141;50.414;8.050;2023-03-17T00:43:26;5.20;99.90
25188;DHT22;13141;50.414;8.050;2023-03-17T00:45:53;5.20;99.90
25188;DHT22;13141;50.414;8.050;2023-03-17T00:48:19;5.20;99.90
25188;DHT22;13141;50.414;8.050;2023-03-17T00:50:47;5.20;99.90
25188;DHT22;13141;50.414;8.050;2023-03-17T00:53:15;5.20;99.90
25188;DHT22;13141;50.414;8.050;2023-03-17T00:55:43;5.10;99.90
25188;DHT22;13141;50.414;8.050;2023-03-17T00:58:12;5.10;99.90
25188;DHT22;13141;50.414;8.050;2023-03-17T01:00:38;5.10;99.90
25188;DHT22;13141;50.414;8.050;2023-03-17T01:03:10;5.10;99.90
25188;DHT22;13141;50.414;8.050;2023-03-17T01:05:36;5.10;99.90
25188;DHT22;13141;50.414;8.050;2023-03-17T01:08:02;5.10;99.90
25188;DHT22;13141;50.414;8.050;2023-03-17T01:10:28;5.10;99.90
25188;DHT22;13141;50.414;8.050;2023-03-17T01:12:55;5.10;99.90
25188;DHT22;13141;50.414;8.050;2023-03-17T01:15:22;5.00;99.90
25188;DHT22;13141;50.414;8.050;2023-03-17T01:17:49;5.00;99.90
25188;DHT22;13141;50.414;8.050;2023-03-17T01:20:19;5.10;99.90
25188;DHT22;13141;50.414;8.050;2023-03-17T01:22:45;5.10;99.90
25188;DHT22;13141;50.414;8.050;2023-03-17T01:25:11;5.10;99.90
25188;DHT22;13141;50.414;8.050;2023-03-17T01:27:38;5.10;99.90
25188;DHT22;13141;50.414;8.050;2023-03-17T01:30:05;5.10;99.90
25188;DHT22;13141;50.414;8.050;2023-03-17T01:32:31;5.10;99.90
25188;DHT22;13141;50.414;8.050;2023-03-17T01:34:57;5.00;99.90
25188;DHT22;13141;50.414;8.050;2023-03-17T01:37:24;5.10;99.90
25188;DHT22;13141;50.414;8.050;2023-03-17T01:39:49;5.10;99.90
25188;DHT22;13141;50.414;8.050;2023-03-17T01:42:15;5.10;99.90
25188;DHT22;13141;50.414;8.050;2023-03-17T01:44:56;5.00;99.90
25188;DHT22;13141;50.414;8.050;2023-03-17T01:47:23;5.00;99.90
25188;DHT22;13141;50.414;8.050;2023-03-17T01:49:50;5.00;99.90
25188;DHT22;13141;50.414;8.050;2023-03-17T01:52:17;5.00;99.90
25188;DHT22;13141;50.414;8.050;2023-03-17T01:54:48;5.00;99.90
25188;DHT22;13141;50.414;8.050;2023-03-17T01:57:18;5.20;99.90
25188;DHT22;13141;50.414;8.050;2023-03-17T01:59:46;4.90;99.90
25188;DHT22;13141;50.414;8.050;2023-03-17T02:02:18;4.90;99.90
25188;DHT22;13141;50.414;8.050;2023-03-17T02:04:44;4.90;99.90
25188;DHT22;13141;50.414;8.050;2023-03-17T02:07:11;4.80;99.90
25188;DHT22;13141;50.414;8.050;2023-03-17T02:09:37;4.60;99.90
25188;DHT22;13141;50.414;8.050;2023-03-17T02:12:06;4.60;99.90
25188;DHT22;13141;50.414;8.050;2023-03-17T02:14:32;4.50;99.90
25188;DHT22;13141;50.414;8.050;2023-03-17T02:16:57;4.40;99.90
25188;DHT22;13141;50.414;8.050;2023-03-17T02:19:23;4.40;99.90
25188;DHT22;13141;50.414;8.050;2023-03-17T02:21:52;4.30;99.90
25188;DHT22;13141;50.414;8.050;2023-03-17T02:24:23;4.30;99.90
25188;DHT22;13141;50.414;8.050;2023-03-17T02:26:49;4.30;99.90
25188;DHT22;13141;50.414;8.050;2023-03-17T02:29:18;4.40;99.90
25188;DHT22;13141;50.414;8.050;2023-03-17T02:31:44;4.50;99.90
25188;DHT22;13141;50.414;8.050;2023-03-17T02:34:10;4.60;99.90
25188;DHT22;13141;50.414;8.050;2023-03-17T02:36:36;4.50;99.90
25188;DHT22;13141;50.414;8.050;2023-03-17T02:39:03;4.70;99.90
25188;DHT22;13141;50.414;8.050;2023-03-17T02:41:29;4.60;99.90
25188;DHT22;13141;50.414;8.050;2023-03-17T02:43:54;4.60;99.90
25188;DHT22;13141;50.414;8.050;2023-03-17T02:46:20;4.60;99.90
25188;DHT22;13141;50.414;8.050;2023-03-17T02:48:46;4.70;99.90
25188;DHT22;13141;50.414;8.050;2023-03-17T02:51:12;4.50;99.90
25188;DHT22;13141;50.414;8.050;2023-03-17T02:53:37;4.50;99.90
25188;DHT22;13141;50.414;8.050;2023-03-17T02:56:05;4.50;99.90
25188;DHT22;13141;50.414;8.050;2023-03-17T02:58:31;4.40;99.90
25188;DHT22;13141;50.414;8.050;2023-03-17T03:00:57;4.30;99.90
25188;DHT22;13141;50.414;8.050;2023-03-17T03:03:22;4.30;99.90
25188;DHT22;13141;50.414;8.050;2023-03-17T03:05:48;4.30;99.90
25188;DHT22;13141;50.414;8.050;2023-03-17T03:08:13;4.20;99.90
25188;DHT22;13141;50.414;8.050;2023-03-17T03:10:39;4.10;99.90
25188;DHT22;13141;50.414;8.050;2023-03-17T03:13:06;4.20;99.90
25188;DHT22;13141;50.414;8.050;2023-03-17T03:15:32;4.20;99.90
25188;DHT22;13141;50.414;8.050;2023-03-17T03:17:57;4.20;99.90
25188;DHT22;13141;50.414;8.050;2023-03-17T03:20:23;4.20;99.90
25188;DHT22;13141;50.414;8.050;2023-03-17T03:22:48;4.20;99.90
25188;DHT22;13141;50.414;8.050;2023-03-17T03:25:14;4.00;99.90
25188;DHT22;13141;50.414;8.050;2023-03-17T03:27:40;4.00;99.90
25188;DHT22;13141;50.414;8.050;2023-03-17T03:30:08;4.00;99.90
25188;DHT22;13141;50.414;8.050;2023-03-17T03:32:34;4.00;99.90
25188;DHT22;13141;50.414;8.050;2023-03-17T03:35:00;4.00;99.90
25188;DHT22;13141;50.414;8.050;2023-03-17T03:37:25;4.00;99.90
25188;DHT22;13141;50.414;8.050;2023-03-17T03:39:51;3.90;99.90
25188;DHT22;13141;50.414;8.050;2023-03-17T03:42:16;3.90;99.90
25188;DHT22;13141;50.414;8.050;2023-03-17T03:44:42;3.90;99.90
25188;DHT22;13141;50.414;8.050;2023-03-17T03:47:09;3.90;99.90
25188;DHT22;13141;50.414;8.050;2023-03-17T03:49:35;3.90;99.90
25188;DHT22;13141;50.414;8.050;2023-03-17T03:52:00;4.00;99.90
25188;DHT22;13141;50.414;8.050;2023-03-17T03:54:26;4.00;99.90
25188;DHT22;13141;50.414;8.050;2023-03-17T03:56:52;3.90;99.90
25188;DHT22;13141;50.414;8.050;2023-03-17T03:59:17;3.90;99.90
25188;DHT22;13141;50.414;8.050;2023-03-17T04:01:43;3.90;99.90
25188;DHT22;13141;50.414;8.050;2023-03-17T04:04:10;3.90;99.90
25188;DHT22;13141;50.414;8.050;2023-03-17T04:06:35;4.10;99.90
25188;DHT22;13141;50.414;8.050;2023-03-17T04:09:01;3.80;99.90
25188;DHT22;13141;50.414;8.050;2023-03-17T04:11:27;3.60;99.90
25188;DHT22;13141;50.414;8.050;2023-03-17T04:13:52;3.00;99.90
25188;DHT22;13141;50.414;8.050;2023-03-17T04:16:18;3.00;99.90
25188;DHT22;13141;50.414;8.050;2023-03-17T04:18:44;2.90;99.90
25188;DHT22;13141;50.414;8.050;2023-03-17T04:21:11;3.00;99.90
25188;DHT22;13141;50.414;8.050;2023-03-17T04:23:36;3.10;99.90
25188;DHT22;13141;50.414;8.050;2023-03-17T04:26:02;3.20;99.90
25188;DHT22;13141;50.414;8.050;2023-03-17T04:28:28;3.10;99.90
25188;DHT22;13141;50.414;8.050;2023-03-17T04:30:53;3.00;99.90
25188;DHT22;13141;50.414;8.050;2023-03-17T04:33:19;3.00;99.90
25188;DHT22;13141;50.414;8.050;2023-03-17T04:35:44;3.00;99.90
25188;DHT22;13141;50.414;8.050;2023-03-17T04:38:12;3.00;99.90
25188;DHT22;13141;50.414;8.050;2023-03-17T04:40:37;3.00;99.90
25188;DHT22;13141;50.414;8.050;2023-03-17T04:43:03;3.00;99.90
25188;DHT22;13141;50.414;8.050;2023-03-17T04:45:28;3.10;99.90
25188;DHT22;13141;50.414;8.050;2023-03-17T04:47:54;3.20;99.90
25188;DHT22;13141;50.414;8.050;2023-03-17T04:50:20;3.10;99.90
25188;DHT22;13141;50.414;8.050;2023-03-17T04:52:45;3.20;99.90
25188;DHT22;13141;50.414;8.050;2023-03-17T04:55:12;3.00;99.90
25188;DHT22;13141;50.414;8.050;2023-03-17T04:57:38;3.10;99.90
25188;DHT22;13141;50.414;8.050;2023-03-17T05:00:05;3.10;99.90
25188;DHT22;13141;50.414;8.050;2023-03-17T05:02:31;3.10;99.90
25188;DHT22;13141;50.414;8.050;2023-03-17T05:04:56;3.10;99.90
25188;DHT22;13141;50.414;8.050;2023-03-17T05:07:42;3.10;99.90
25188;DHT22;13141;50.414;8.050;2023-03-17T05:10:09;3.00;99.90
25188;DHT22;13141;50.414;8.050;2023-03-17T05:12:36;3.00;99.90
25188;DHT22;13141;50.414;8.050;2023-03-17T05:15:02;2.80;99.90
25188;DHT22;13141;50.414;8.050;2023-03-17T05:17:48;2.80;99.90
25188;DHT22;13141;50.414;8.050;2023-03-17T05:20:14;2.70;99.90
25188;DHT22;13141;50.414;8.050;2023-03-17T05:22:39;2.60;99.90
25188;DHT22;13141;50.414;8.050;2023-03-17T05:25:05;2.70;99.90
25188;DHT22;13141;50.414;8.050;2023-03-17T05:27:31;2.80;99.90
25188;DHT22;13141;50.414;8.050;2023-03-17T05:29:58;2.90;99.90
25188;DHT22;13141;50.414;8.050;2023-03-17T05:32:23;2.90;99.90
25188;DHT22;13141;50.414;8.050;2023-03-17T05:34:49;2.90;99.90
25188;DHT22;13141;50.414;8.050;2023-03-17T05:37:15;2.90;99.90
25188;DHT22;13141;50.414;8.050;2023-03-17T05:39:41;2.90;99.90
25188;DHT22;13141;50.414;8.050;2023-03-17T05:42:06;2.90;99.90
25188;DHT22;13141;50.414;8.050;2023-03-17T05:44:32;2.90;99.90
25188;DHT22;13141;50.414;8.050;2023-03-17T05:46:59;2.90;99.90
25188;DHT22;13141;50.414;8.050;2023-03-17T05:49:25;2.90;99.90
25188;DHT22;13141;50.414;8.050;2023-03-17T05:51:50;2.80;99.90
25188;DHT22;13141;50.414;8.050;2023-03-17T05:54:16;2.90;99.90
25188;DHT22;13141;50.414;8.050;2023-03-17T05:56:42;3.10;99.90
25188;DHT22;13141;50.414;8.050;2023-03-17T05:59:08;2.80;99.90
25188;DHT22;13141;50.414;8.050;2023-03-17T06:01:34;2.80;99.90
25188;DHT22;13141;50.414;8.050;2023-03-17T06:04:01;2.80;99.90
25188;DHT22;13141;50.414;8.050;2023-03-17T06:06:26;2.80;99.90
25188;DHT22;13141;50.414;8.050;2023-03-17T06:08:52;2.80;99.90
25188;DHT22;13141;50.414;8.050;2023-03-17T06:11:18;2.80;99.90
25188;DHT22;13141;50.414;8.050;2023-03-17T06:13:44;2.80;99.90
25188;DHT22;13141;50.414;8.050;2023-03-17T06:16:09;2.80;99.90
25188;DHT22;13141;50.414;8.050;2023-03-17T06:18:35;2.80;99.90
25188;DHT22;13141;50.414;8.050;2023-03-17T06:21:02;2.90;99.90
25188;DHT22;13141;50.414;8.050;2023-03-17T06:23:27;2.90;99.90
25188;DHT22;13141;50.414;8.050;2023-03-17T06:25:53;2.90;99.90
25188;DHT22;13141;50.414;8.050;2023-03-17T06:28:19;3.00;99.90
25188;DHT22;13141;50.414;8.050;2023-03-17T06:30:44;3.00;99.90
25188;DHT22;13141;50.414;8.050;2023-03-17T06:33:10;3.00;99.90
25188;DHT22;13141;50.414;8.050;2023-03-17T06:35:36;3.10;99.90
25188;DHT22;13141;50.414;8.050;2023-03-17T06:38:03;3.20;99.90
25188;DHT22;13141;50.414;8.050;2023-03-17T06:40:29;3.20;99.90
25188;DHT22;13141;50.414;8.050;2023-03-17T06:42:55;3.30;99.90
25188;DHT22;13141;50.414;8.050;2023-03-17T06:45:20;3.30;99.90
25188;DHT22;13141;50.414;8.050;2023-03-17T06:47:46;3.40;99.90
25188;DHT22;13141;50.414;8.050;2023-03-17T06:50:12;3.40;99.90
25188;DHT22;13141;50.414;8.050;2023-03-17T06:52:38;3.40;99.90
25188;DHT22;13141;50.414;8.050;2023-03-17T06:55:06;3.50;99.90
25188;DHT22;13141;50.414;8.050;2023-03-17T06:57:32;3.50;99.90
25188;DHT22;13141;50.414;8.050;2023-03-17T06:59:58;3.60;99.90
25188;DHT22;13141;50.414;8.050;2023-03-17T07:02:23;3.60;99.90
25188;DHT22;13141;50.414;8.050;2023-03-17T07:04:49;3.70;99.90
25188;DHT22;13141;50.414;8.050;2023-03-17T07:07:14;3.70;99.90
25188;DHT22;13141;50.414;8.050;2023-03-17T07:09:40;3.80;99.90
25188;DHT22;13141;50.414;8.050;2023-03-17T07:12:07;3.80;99.90
25188;DHT22;13141;50.414;8.050;2023-03-17T07:14:34;4.20;99.90
25188;DHT22;13141;50.414;8.050;2023-03-17T07:17:00;4.00;99.90
25188;DHT22;13141;50.414;8.050;2023-03-17T07:19:26;4.10;99.90
25188;DHT22;13141;50.414;8.050;2023-03-17T07:21:52;4.10;99.90
25188;DHT22;13141;50.414;8.050;2023-03-17T07:24:17;4.20;99.90
25188;DHT22;13141;50.414;8.050;2023-03-17T07:26:43;4.30;99.90
25188;DHT22;13141;50.414;8.050;2023-03-17T07:29:10;4.40;99.90
25188;DHT22;13141;50.414;8.050;2023-03-17T07:31:35;4.50;99.90
25188;DHT22;13141;50.414;8.050;2023-03-17T07:34:01;4.40;99.90
25188;DHT22;13141;50.414;8.050;2023-03-17T07:36:26;4.40;99.90
25188;DHT22;13141;50.414;8.050;2023-03-17T07:38:52;4.40;99.90
25188;DHT22;13141;50.414;8.050;2023-03-17T07:41:18;4.50;99.90
25188;DHT22;13141;50.414;8.050;2023-03-17T07:43:43;4.60;99.90
25188;DHT22;13141;50.414;8.050;2023-03-17T07:46:11;4.80;99.90
25188;DHT22;13141;50.414;8.050;2023-03-17T07:48:36;4.90;99.90
25188;DHT22;13141;50.414;8.050;2023-03-17T07:51:02;5.00;99.90
25188;DHT22;13141;50.414;8.050;2023-03-17T07:53:28;5.10;99.90
25188;DHT22;13141;50.414;8.050;2023-03-17T07:55:53;5.20;99.90
25188;DHT22;13141;50.414;8.050;2023-03-17T07:58:19;5.20;99.90
25188;DHT22;13141;50.414;8.050;2023-03-17T08:00:45;5.40;99.90
25188;DHT22;13141;50.414;8.050;2023-03-17T08:03:12;5.50;99.90
25188;DHT22;13141;50.414;8.050;2023-03-17T08:05:38;5.70;99.90
25188;DHT22;13141;50.414;8.050;2023-03-17T08:08:04;5.80;99.90
25188;DHT22;13141;50.414;8.050;2023-03-17T08:10:30;6.00;99.90
25188;DHT22;13141;50.414;8.050;2023-03-17T08:12:55;6.20;99.90
25188;DHT22;13141;50.414;8.050;2023-03-17T08:15:21;6.30;99.90
25188;DHT22;13141;50.414;8.050;2023-03-17T08:17:47;6.50;99.90
25188;DHT22;13141;50.414;8.050;2023-03-17T08:20:14;6.70;99.90
25188;DHT22;13141;50.414;8.050;2023-03-17T08:22:39;6.90;99.90
25188;DHT22;13141;50.414;8.050;2023-03-17T08:25:06;7.20;99.90
25188;DHT22;13141;50.414;8.050;2023-03-17T08:27:31;7.50;99.90
25188;DHT22;13141;50.414;8.050;2023-03-17T08:29:58;7.80;99.90
25188;DHT22;13141;50.414;8.050;2023-03-17T08:32:24;8.20;99.90
25188;DHT22;13141;50.414;8.050;2023-03-17T08:34:52;8.50;99.90
25188;DHT22;13141;50.414;8.050;2023-03-17T08:37:20;8.80;99.90
25188;DHT22;13141;50.414;8.050;2023-03-17T08:39:45;9.10;99.90
25188;DHT22;13141;50.414;8.050;2023-03-17T08:42:11;9.40;99.90
25188;DHT22;13141;50.414;8.050;2023-03-17T08:44:37;9.70;99.90
25188;DHT22;13141;50.414;8.050;2023-03-17T08:47:03;9.80;99.90
25188;DHT22;13141;50.414;8.050;2023-03-17T08:49:31;10.00;99.90
25188;DHT22;13141;50.414;8.050;2023-03-17T08:51:57;10.20;99.90
25188;DHT22;13141;50.414;8.050;2023-03-17T08:54:24;10.30;99.90
25188;DHT22;13141;50.414;8.050;2023-03-17T08:56:50;10.60;99.90
25188;DHT22;13141;50.414;8.050;2023-03-17T08:59:16;10.80;99.90
25188;DHT22;13141;50.414;8.050;2023-03-17T09:01:41;11.00;99.90
25188;DHT22;13141;50.414;8.050;2023-03-17T09:04:07;11.20;99.90
25188;DHT22;13141;50.414;8.050;2023-03-17T09:06:33;11.40;99.90
25188;DHT22;13141;50.414;8.050;2023-03-17T09:08:58;11.50;99.90
25188;DHT22;13141;50.414;8.050;2023-03-17T09:11:27;11.60;99.90
25188;DHT22;13141;50.414;8.050;2023-03-17T09:13:54;11.70;99.90
25188;DHT22;13141;50.414;8.050;2023-03-17T09:16:19;11.90;99.90
25188;DHT22;13141;50.414;8.050;2023-03-17T09:18:46;12.00;99.90
25188;DHT22;13141;50.414;8.050;2023-03-17T09:21:13;12.10;99.90
25188;DHT22;13141;50.414;8.050;2023-03-17T09:23:39;12.10;99.90
25188;DHT22;13141;50.414;8.050;2023-03-17T09:26:05;12.30;99.90
25188;DHT22;13141;50.414;8.050;2023-03-17T09:28:32;12.50;99.90
25188;DHT22;13141;50.414;8.050;2023-03-17T09:30:58;12.40;99.90
25188;DHT22;13141;50.414;8.050;2023-03-17T09:33:24;12.50;99.90
25188;DHT22;13141;50.414;8.050;2023-03-17T09:35:50;12.60;99.90
25188;DHT22;13141;50.414;8.050;2023-03-17T09:38:17;12.80;99.90
25188;DHT22;13141;50.414;8.050;2023-03-17T09:40:46;12.90;99.90
25188;DHT22;13141;50.414;8.050;2023-03-17T09:43:21;13.10;99.50
25188;DHT22;13141;50.414;8.050;2023-03-17T09:45:50;13.30;99.90
25188;DHT22;13141;50.414;8.050;2023-03-17T09:48:43;13.50;99.90
25188;DHT22;13141;50.414;8.050;2023-03-17T09:51:13;13.80;99.90
25188;DHT22;13141;50.414;8.050;2023-03-17T09:53:44;14.20;99.90
25188;DHT22;13141;50.414;8.050;2023-03-17T09:56:12;14.40;99.80
25188;DHT22;13141;50.414;8.050;2023-03-17T09:58:41;14.60;99.90
25188;DHT22;13141;50.414;8.050;2023-03-17T10:01:10;14.70;99.90
25188;DHT22;13141;50.414;8.050;2023-03-17T10:03:36;14.80;99.90
25188;DHT22;13141;50.414;8.050;2023-03-17T10:06:33;14.90;99.60
25188;DHT22;13141;50.414;8.050;2023-03-17T10:09:06;14.90;97.90
25188;DHT22;13141;50.414;8.050;2023-03-17T10:11:39;14.80;96.70
25188;DHT22;13141;50.414;8.050;2023-03-17T10:14:16;14.70;95.70
25188;DHT22;13141;50.414;8.050;2023-03-17T10:16:49;14.50;95.10
25188;DHT22;13141;50.414;8.050;2023-03-17T10:19:22;14.20;96.00
25188;DHT22;13141;50.414;8.050;2023-03-17T10:21:51;14.10;95.70
25188;DHT22;13141;50.414;8.050;2023-03-17T10:24:19;14.20;95.90
25188;DHT22;13141;50.414;8.050;2023-03-17T10:26:47;14.20;95.50
25188;DHT22;13141;50.414;8.050;2023-03-17T10:29:34;14.40;95.30
25188;DHT22;13141;50.414;8.050;2023-03-17T10:32:01;14.50;93.70
25188;DHT22;13141;50.414;8.050;2023-03-17T10:34:29;14.50;94.90
25188;DHT22;13141;50.414;8.050;2023-03-17T10:36:59;14.60;94.90
25188;DHT22;13141;50.414;8.050;2023-03-17T10:39:25;14.60;93.50
25188;DHT22;13141;50.414;8.050;2023-03-17T10:41:55;14.70;94.30
25188;DHT22;13141;50.414;8.050;2023-03-17T10:44:28;14.90;95.00
25188;DHT22;13141;50.414;8.050;2023-03-17T10:46:57;14.90;94.40
25188;DHT22;13141;50.414;8.050;2023-03-17T10:49:25;15.00;93.10
25188;DHT22;13141;50.414;8.050;2023-03-17T10:51:52;15.10;93.30
25188;DHT22;13141;50.414;8.050;2023-03-17T10:54:22;14.90;93.20
25188;DHT22;13141;50.414;8.050;2023-03-17T10:56:55;15.00;93.30
25188;DHT22;13141;50.414;8.050;2023-03-17T10:59:27;15.10;94.10
25188;DHT22;13141;50.414;8.050;2023-03-17T11:01:57;15.20;93.30
25188;DHT22;13141;50.414;8.050;2023-03-17T11:04:31;14.90;92.60
25188;DHT22;13141;50.414;8.050;2023-03-17T11:06:58;15.50;93.20
25188;DHT22;13141;50.414;8.050;2023-03-17T11:09:25;15.60;91.90
25188;DHT22;13141;50.414;8.050;2023-03-17T11:12:00;15.80;92.50
25188;DHT22;13141;50.414;8.050;2023-03-17T11:14:27;15.90;92.30
25188;DHT22;13141;50.414;8.050;2023-03-17T11:16:55;16.00;91.50
25188;DHT22;13141;50.414;8.050;2023-03-17T11:19:27;16.00;92.20
25188;DHT22;13141;50.414;8.050;2023-03-17T11:22:01;16.10;91.70
25188;DHT22;13141;50.414;8.050;2023-03-17T11:24:31;15.90;91.40
25188;DHT22;13141;50.414;8.050;2023-03-17T11:26:59;15.90;92.40
25188;DHT22;13141;50.414;8.050;2023-03-17T11:32:24;15.80;91.80
25188;DHT22;13141;50.414;8.050;2023-03-17T11:34:59;15.80;92.60
25188;DHT22;13141;50.414;8.050;2023-03-17T11:37:51;16.00;92.00
25188;DHT22;13141;50.414;8.050;2023-03-17T11:40:21;15.70;92.40
25188;DHT22;13141;50.414;8.050;2023-03-17T11:42:57;15.80;92.00
25188;DHT22;13141;50.414;8.050;2023-03-17T11:45:32;15.80;93.00
25188;DHT22;13141;50.414;8.050;2023-03-17T11:48:22;15.60;92.20
25188;DHT22;13141;50.414;8.050;2023-03-17T11:51:02;15.60;92.30
25188;DHT22;13141;50.414;8.050;2023-03-17T11:54:02;15.60;92.20
25188;DHT22;13141;50.414;8.050;2023-03-17T11:56:38;15.60;92.70
25188;DHT22;13141;50.414;8.050;2023-03-17T11:59:19;15.70;93.10
25188;DHT22;13141;50.414;8.050;2023-03-17T12:01:55;15.60;92.20
25188;DHT22;13141;50.414;8.050;2023-03-17T12:04:26;15.50;93.10
25188;DHT22;13141;50.414;8.050;2023-03-17T12:06:57;15.50;92.80
25188;DHT22;13141;50.414;8.050;2023-03-17T12:09:31;15.50;93.50
25188;DHT22;13141;50.414;8.050;2023-03-17T12:12:00;15.60;93.60
25188;DHT22;13141;50.414;8.050;2023-03-17T12:14:29;15.60;92.80
25188;DHT22;13141;50.414;8.050;2023-03-17T12:17:03;15.70;92.30
25188;DHT22;13141;50.414;8.050;2023-03-17T12:19:36;15.80;93.30
25188;DHT22;13141;50.414;8.050;2023-03-17T12:22:06;15.90;93.80
25188;DHT22;13141;50.414;8.050;2023-03-17T12:24:38;16.00;93.10
25188;DHT22;13141;50.414;8.050;2023-03-17T12:27:09;15.90;92.00
25188;DHT22;13141;50.414;8.050;2023-03-17T12:29:42;15.80;92.20
25188;DHT22;13141;50.414;8.050;2023-03-17T12:32:15;15.80;91.80
25188;DHT22;13141;50.414;8.050;2023-03-17T12:34:48;15.80;92.20
25188;DHT22;13141;50.414;8.050;2023-03-17T12:37:15;15.80;92.50
25188;DHT22;13141;50.414;8.050;2023-03-17T12:39:46;15.90;92.30
25188;DHT22;13141;50.414;8.050;2023-03-17T12:42:26;15.90;92.50
25188;DHT22;13141;50.414;8.050;2023-03-17T12:48:03;15.80;92.60
25188;DHT22;13141;50.414;8.050;2023-03-17T12:50:49;15.90;92.50
25188;DHT22;13141;50.414;8.050;2023-03-17T12:53:24;15.70;91.40
25188;DHT22;13141;50.414;8.050;2023-03-17T12:55:57;15.60;91.70
25188;DHT22;13141;50.414;8.050;2023-03-17T12:58:29;15.70;92.20
25188;DHT22;13141;50.414;8.050;2023-03-17T13:01:02;15.90;91.30
25188;DHT22;13141;50.414;8.050;2023-03-17T13:03:31;16.00;91.20
25188;DHT22;13141;50.414;8.050;2023-03-17T13:05:59;16.20;91.70
25188;DHT22;13141;50.414;8.050;2023-03-17T13:08:29;16.30;91.60
25188;DHT22;13141;50.414;8.050;2023-03-17T13:11:16;16.30;91.20
25188;DHT22;13141;50.414;8.050;2023-03-17T13:13:46;16.40;91.30
25188;DHT22;13141;50.414;8.050;2023-03-17T13:16:28;16.50;91.70
25188;DHT22;13141;50.414;8.050;2023-03-17T13:19:16;16.60;91.00
25188;DHT22;13141;50.414;8.050;2023-03-17T13:21:50;16.60;91.90
25188;DHT22;13141;50.414;8.050;2023-03-17T13:24:44;16.80;92.30
25188;DHT22;13141;50.414;8.050;2023-03-17T13:27:12;16.70;91.70
25188;DHT22;13141;50.414;8.050;2023-03-17T13:29:43;16.70;91.40
25188;DHT22;13141;50.414;8.050;2023-03-17T13:32:33;16.40;91.20
25188;DHT22;13141;50.414;8.050;2023-03-17T13:35:19;16.50;92.30
25188;DHT22;13141;50.414;8.050;2023-03-17T13:38:05;16.50;92.30
25188;DHT22;13141;50.414;8.050;2023-03-17T13:40:44;16.50;92.00
25188;DHT22;13141;50.414;8.050;2023-03-17T13:43:27;16.50;91.90
25188;DHT22;13141;50.414;8.050;2023-03-17T13:46:18;16.50;92.80
25188;DHT22;13141;50.414;8.050;2023-03-17T13:48:44;16.40;91.80
25188;DHT22;13141;50.414;8.050;2023-03-17T13:51:17;16.40;92.60
25188;DHT22;13141;50.414;8.050;2023-03-17T13:53:47;16.40;92.20
25188;DHT22;13141;50.414;8.050;2023-03-17T13:56:15;16.40;92.30
25188;DHT22;13141;50.414;8.050;2023-03-17T13:58:54;16.30;92.30
25188;DHT22;13141;50.414;8.050;2023-03-17T14:01:21;16.20;92.90
25188;DHT22;13141;50.414;8.050;2023-03-17T14:03:48;16.20;93.60
25188;DHT22;13141;50.414;8.050;2023-03-17T14:06:15;15.70;92.60
25188;DHT22;13141;50.414;8.050;2023-03-17T14:08:45;16.10;92.80
25188;DHT22;13141;50.414;8.050;2023-03-17T14:11:28;16.20;93.50
25188;DHT22;13141;50.414;8.050;2023-03-17T14:14:10;16.00;93.10
25188;DHT22;13141;50.414;8.050;2023-03-17T14:16:42;15.90;92.50
25188;DHT22;13141;50.414;8.050;2023-03-17T14:19:15;15.90;93.10
25188;DHT22;13141;50.414;8.050;2023-03-17T14:21:42;15.70;93.20
25188;DHT22;13141;50.414;8.050;2023-03-17T14:24:18;15.80;93.50
25188;DHT22;13141;50.414;8.050;2023-03-17T14:26:44;15.80;93.50
25188;DHT22;13141;50.414;8.050;2023-03-17T14:29:13;15.80;93.40
25188;DHT22;13141;50.414;8.050;2023-03-17T14:31:40;15.70;92.90
25188;DHT22;13141;50.414;8.050;2023-03-17T14:34:11;15.60;93.50
25188;DHT22;13141;50.414;8.050;2023-03-17T14:36:37;15.60;93.70
25188;DHT22;13141;50.414;8.050;2023-03-17T14:39:03;15.70;93.90
25188;DHT22;13141;50.414;8.050;2023-03-17T14:41:29;15.70;94.10
25188;DHT22;13141;50.414;8.050;2023-03-17T14:43:57;15.70;93.20
25188;DHT22;13141;50.414;8.050;2023-03-17T14:46:26;15.70;93.30
25188;DHT22;13141;50.414;8.050;2023-03-17T14:48:58;15.60;92.70
25188;DHT22;13141;50.414;8.050;2023-03-17T14:51:26;15.70;93.40
25188;DHT22;13141;50.414;8.050;2023-03-17T14:53:56;15.80;93.20
25188;DHT22;13141;50.414;8.050;2023-03-17T14:56:23;15.80;92.40
25188;DHT22;13141;50.414;8.050;2023-03-17T14:58:50;15.50;92.20
25188;DHT22;13141;50.414;8.050;2023-03-17T15:01:19;15.50;92.60
25188;DHT22;13141;50.414;8.050;2023-03-17T15:03:58;15.50;92.80
25188;DHT22;13141;50.414;8.050;2023-03-17T15:06:29;15.50;93.00
25188;DHT22;13141;50.414;8.050;2023-03-17T15:08:56;15.40;92.60
25188;DHT22;13141;50.414;8.050;2023-03-17T15:11:24;15.40;92.90
25188;DHT22;13141;50.414;8.050;2023-03-17T15:13:54;15.50;93.20
25188;DHT22;13141;50.414;8.050;2023-03-17T15:16:23;15.50;93.10
25188;DHT22;13141;50.414;8.050;2023-03-17T15:18:54;15.50;93.00
25188;DHT22;13141;50.414;8.050;2023-03-17T15:21:27;15.70;93.20
25188;DHT22;13141;50.414;8.050;2023-03-17T15:23:53;15.60;92.80
25188;DHT22;13141;50.414;8.050;2023-03-17T15:26:21;15.70;93.10
25188;DHT22;13141;50.414;8.050;2023-03-17T15:28:47;15.60;92.60
25188;DHT22;13141;50.414;8.050;2023-03-17T15:31:13;15.70;93.10
25188;DHT22;13141;50.414;8.050;2023-03-17T15:33:40;15.60;92.80
25188;DHT22;13141;50.414;8.050;2023-03-17T15:36:06;15.70;92.90
25188;DHT22;13141;50.414;8.050;2023-03-17T15:38:33;15.70;93.00
25188;DHT22;13141;50.414;8.050;2023-03-17T15:40:58;15.70;92.60
25188;DHT22;13141;50.414;8.050;2023-03-17T15:43:24;15.80;93.10
25188;DHT22;13141;50.414;8.050;2023-03-17T15:45:53;15.80;93.20
25188;DHT22;13141;50.414;8.050;2023-03-17T15:48:22;15.80;93.00
25188;DHT22;13141;50.414;8.050;2023-03-17T15:50:49;15.90;93.20
25188;DHT22;13141;50.414;8.050;2023-03-17T15:53:15;15.90;93.60
25188;DHT22;13141;50.414;8.050;2023-03-17T15:55:42;16.00;93.30